Time;durP1;ratioP1;P1;durP2;ratioP2;P2;SDS_P1;SDS_P2;PMS_P1;PMS_P2;Temp;Humidity;BMP_temperature;BMP_pressure;BME280_temperature;BME280_humidity;BME280_pressure;Samples;Min_cycle;Max_cycle;Signal;HPM_P1;HPM_P2
2022/12/04 00:01:31;;;;;;;30.30;12.30;;;;;;;1.19;100.00;98292.29;107774;1267;58964;-67
2022/12/04 00:04:00;;;;;;;24.60;12.10;;;;;;;1.18;100.00;98293.51;107658;1269;71245;-67
2022/12/04 00:06:29;;;;;;;33.40;13.20;;;;;;;1.16;100.00;98290.82;107720;1263;69833;-67
2022/12/04 00:08:59;;;;;;;21.10;11.50;;;;;;;1.15;100.00;98293.76;107674;1267;69094;-67
2022/12/04 00:11:30;;;;;;;24.90;10.00;;;;;;;1.14;100.00;98291.36;107669;1262;58959;-67
2022/12/04 00:14:00;;;;;;;24.80;11.20;;;;;;;1.13;100.00;98287.44;107753;1267;58858;-67
2022/12/04 00:16:35;;;;;;;25.50;11.50;;;;;;;1.14;100.00;98290.17;107671;1263;71169;-67
2022/12/04 00:19:04;;;;;;;21.50;11.40;;;;;;;1.13;100.00;98291.92;107721;1265;69847;-67
2022/12/04 00:21:34;;;;;;;26.20;13.20;;;;;;;1.11;100.00;98288.52;107724;1267;68323;-67
2022/12/04 00:24:04;;;;;;;19.60;10.90;;;;;;;1.10;100.00;98285.09;107661;1267;58962;-67
2022/12/04 00:26:34;;;;;;;;;;;;;;;1.10;100.00;98286.83;107714;1267;58912;-67
2022/12/04 00:29:03;;;;;;;20.20;10.30;;;;;;;1.08;100.00;98288.40;107668;1267;70809;-66
2022/12/04 00:31:32;;;;;;;;;;;;;;;1.08;100.00;98288.93;107697;1263;68988;-67
2022/12/04 00:34:02;;;;;;;22.70;10.70;;;;;;;1.07;100.00;98289.45;107711;1263;68769;-67
2022/12/04 00:36:36;;;;;;;16.90;10.60;;;;;;;1.07;100.00;98286.90;107619;1267;58892;-66
2022/12/04 00:39:06;;;;;;;22.20;11.70;;;;;;;1.05;100.00;98284.16;107701;1263;58870;-66
2022/12/04 00:41:37;;;;;;;23.00;12.60;;;;;;;1.05;100.00;98284.36;107675;1267;70439;-66
2022/12/04 00:44:07;;;;;;;26.50;14.20;;;;;;;1.02;100.00;98286.46;107673;1267;68655;-67
2022/12/04 00:46:37;;;;;;;18.70;10.50;;;;;;;1.02;100.00;98283.89;107725;1267;69045;-67
2022/12/04 00:49:06;;;;;;;;;;;;;;;1.01;100.00;98278.08;107626;1265;58982;-67
2022/12/04 00:51:36;;;;;;;21.00;10.70;;;;;;;0.99;100.00;98279.13;107677;1263;58943;-67
2022/12/04 00:54:06;;;;;;;25.00;12.70;;;;;;;0.99;100.00;98283.59;107639;1263;71228;-68
2022/12/04 00:56:36;;;;;;;24.60;11.20;;;;;;;0.98;100.00;98286.53;107674;1265;69171;-67
2022/12/04 00:59:05;;;;;;;22.40;12.60;;;;;;;0.98;100.00;98285.52;107629;1266;69909;-67
2022/12/04 01:01:34;;;;;;;22.90;11.20;;;;;;;0.97;100.00;98281.60;107642;1263;58982;-67
2022/12/04 01:04:03;;;;;;;19.20;12.60;;;;;;;0.94;100.00;98279.94;107651;1267;59024;-67
2022/12/04 01:06:33;;;;;;;21.80;11.70;;;;;;;0.92;100.00;98283.40;107675;1262;70434;-67
2022/12/04 01:09:05;;;;;;;21.70;11.30;;;;;;;0.92;100.00;98284.95;107751;1266;68652;-66
2022/12/04 01:11:35;;;;;;;23.10;10.90;;;;;;;0.89;100.00;98284.83;107970;1267;69914;-67
2022/12/04 01:14:05;;;;;;;17.10;10.90;;;;;;;0.86;100.00;98283.70;107663;1263;58945;-67
2022/12/04 01:16:37;;;;;;;24.40;13.10;;;;;;;0.84;100.00;98284.26;107742;1267;58852;-67
2022/12/04 01:19:10;;;;;;;20.90;11.90;;;;;;;0.84;100.00;98284.45;107737;1267;71204;-67
2022/12/04 01:21:40;;;;;;;24.60;12.70;;;;;;;0.84;100.00;98287.52;107802;1267;69212;-66
2022/12/04 01:24:11;;;;;;;20.50;11.90;;;;;;;0.85;100.00;98282.34;107751;1258;69303;-67
2022/12/04 01:26:41;;;;;;;22.40;12.20;;;;;;;0.87;100.00;98284.02;107844;1265;58946;-67
2022/12/04 01:29:11;;;;;;;27.00;11.80;;;;;;;0.87;100.00;98281.11;107725;1267;58970;-66
2022/12/04 01:31:41;;;;;;;;;;;;;;;0.86;100.00;98280.09;107588;1265;70795;-66
2022/12/04 01:34:11;;;;;;;17.20;10.20;;;;;;;0.85;100.00;98279.95;107624;1262;69406;-66
2022/12/04 01:36:40;;;;;;;24.70;12.10;;;;;;;0.83;100.00;98281.17;107594;1267;68370;-66
2022/12/04 01:39:09;;;;;;;20.90;9.70;;;;;;;0.83;100.00;98279.29;107653;1267;58931;-66
2022/12/04 01:41:39;;;;;;;20.80;9.90;;;;;;;0.82;100.00;98275.88;107653;1265;58899;-66
2022/12/04 01:44:21;;;;;;;19.70;9.60;;;;;;;0.82;100.00;98274.35;107607;1267;70620;-66
2022/12/04 01:46:58;;;;;;;21.10;11.40;;;;;;;0.81;100.00;98272.32;107646;1267;69244;-66
2022/12/04 01:49:47;;;;;;;22.20;11.30;;;;;;;0.79;100.00;98271.14;107640;1267;68353;-66
2022/12/04 01:52:21;;;;;;;15.70;8.90;;;;;;;0.77;100.00;98265.70;107661;1265;58900;-66
2022/12/04 01:54:55;;;;;;;19.60;10.80;;;;;;;0.75;100.00;98265.39;107654;1267;58966;-66
2022/12/04 01:57:30;;;;;;;24.80;10.10;;;;;;;0.75;100.00;98269.67;107686;1265;70590;-66
2022/12/04 02:00:08;;;;;;;26.80;11.30;;;;;;;0.75;100.00;98272.09;107693;1267;69190;-66
2022/12/04 02:02:42;;;;;;;15.70;8.00;;;;;;;0.74;100.00;98269.88;107633;1267;69279;-66
2022/12/04 02:05:15;;;;;;;17.30;9.30;;;;;;;0.74;100.00;98270.91;107635;1267;59041;-66
2022/12/04 02:07:47;;;;;;;23.20;9.60;;;;;;;0.74;100.00;98275.37;107651;1267;58892;-66
2022/12/04 02:10:23;;;;;;;19.10;10.20;;;;;;;0.72;100.00;98277.46;107654;1267;71055;-67
2022/12/04 02:13:16;;;;;;;16.70;9.20;;;;;;;0.71;100.00;98277.31;107617;1265;69062;-68
2022/12/04 02:16:01;;;;;;;22.90;11.10;;;;;;;0.68;100.00;98279.61;107618;1266;69370;-66
2022/12/04 02:19:11;;;;;;;17.90;9.20;;;;;;;0.65;100.00;98278.13;107661;1265;58914;-66
2022/12/04 02:21:46;;;;;;;12.60;7.00;;;;;;;0.68;100.00;98274.61;107609;1267;58959;-66
2022/12/04 02:24:22;;;;;;;17.80;9.30;;;;;;;0.68;100.00;98270.69;107652;1267;70014;-66
2022/12/04 02:27:08;;;;;;;22.50;10.90;;;;;;;0.68;100.00;98270.34;107665;1267;69205;-66
2022/12/04 02:29:55;;;;;;;22.20;10.40;;;;;;;0.68;100.00;98270.66;107640;1265;68775;-66
2022/12/04 02:32:44;;;;;;;15.20;9.00;;;;;;;0.69;100.00;98267.39;107647;1266;58967;-66
2022/12/04 02:35:20;;;;;;;23.20;11.30;;;;;;;0.67;100.00;98262.61;107700;1262;58973;-67
2022/12/04 02:38:03;;;;;;;21.20;11.40;;;;;;;0.68;100.00;98259.52;107695;1267;70656;-67
2022/12/04 02:41:05;;;;;;;15.50;9.20;;;;;;;0.70;100.00;98260.02;107692;1265;69241;-66
2022/12/04 02:43:42;;;;;;;26.20;11.20;;;;;;;0.70;100.00;98256.05;107656;1263;67387;-66
2022/12/04 02:46:23;;;;;;;20.40;10.00;;;;;;;0.70;100.00;98255.38;107647;1263;58932;-66
2022/12/04 02:49:00;;;;;;;21.20;10.40;;;;;;;0.69;100.00;98257.61;107728;1263;58861;-66
2022/12/04 02:51:35;;;;;;;26.10;11.90;;;;;;;0.66;100.00;98249.44;107720;1265;69822;-66
2022/12/04 02:54:13;;;;;;;17.00;9.30;;;;;;;0.64;100.00;98251.72;107672;1267;69340;-66
2022/12/04 02:56:46;;;;;;;18.00;10.30;;;;;;;0.60;100.00;98252.13;107690;1265;69263;-66
2022/12/04 02:59:24;;;;;;;20.60;11.60;;;;;;;0.57;100.00;98251.85;107645;1267;58954;-66
2022/12/04 03:01:59;;;;;;;21.80;10.40;;;;;;;0.57;100.00;98260.42;107665;1265;58932;-67
2022/12/04 03:04:30;;;;;;;18.20;9.70;;;;;;;0.56;100.00;98264.91;107734;1267;69707;-67
2022/12/04 03:07:10;;;;;;;15.30;8.20;;;;;;;0.54;100.00;98265.80;107685;1267;69245;-67
2022/12/04 03:09:44;;;;;;;;;;;;;;;0.55;100.00;98262.01;107656;1267;69215;-67
2022/12/04 03:12:48;;;;;;;21.10;10.60;;;;;;;0.54;100.00;98257.56;107638;1267;58956;-67
2022/12/04 03:15:36;;;;;;;19.80;9.00;;;;;;;0.54;100.00;98257.24;107697;1265;58907;-67
2022/12/04 03:18:17;;;;;;;35.50;12.70;;;;;;;0.52;100.00;98250.05;107681;1267;70800;-67
2022/12/04 03:20:52;;;;;;;23.50;10.30;;;;;;;0.50;100.00;98247.50;107651;1266;68858;-67
2022/12/04 03:23:29;;;;;;;24.00;11.10;;;;;;;0.49;100.00;98249.58;107636;1265;69402;-67
2022/12/04 03:26:34;;;;;;;22.20;10.50;;;;;;;0.48;100.00;98258.70;107638;1267;58916;-67
2022/12/04 03:29:26;;;;;;;18.60;9.70;;;;;;;0.48;100.00;98261.10;107722;1267;58967;-67
2022/12/04 03:32:04;;;;;;;15.90;8.80;;;;;;;0.49;100.00;98254.73;107666;1267;69793;-66
2022/12/04 03:34:55;;;;;;;22.50;9.20;;;;;;;0.45;100.00;98249.84;107643;1267;69399;-66
2022/12/04 03:37:51;;;;;;;16.70;10.40;;;;;;;0.44;100.00;98250.38;107631;1263;69649;-66
2022/12/04 03:40:35;;;;;;;21.60;10.40;;;;;;;0.45;100.00;98254.63;107649;1267;58945;-68
2022/12/04 03:43:12;;;;;;;19.80;8.90;;;;;;;0.47;100.00;98258.55;107662;1267;58907;-66
2022/12/04 03:45:56;;;;;;;14.00;7.90;;;;;;;0.48;100.00;98263.34;107683;1263;69703;-66
2022/12/04 03:49:14;;;;;;;14.70;7.80;;;;;;;0.45;100.00;98260.81;107634;1262;69149;-66
2022/12/04 03:51:59;;;;;;;19.70;9.10;;;;;;;0.43;100.00;98258.46;107625;1267;69919;-67
2022/12/04 03:54:42;;;;;;;11.40;6.20;;;;;;;0.39;100.00;98258.02;107664;1266;58901;-66
2022/12/04 03:57:22;;;;;;;13.80;7.50;;;;;;;0.36;100.00;98257.20;107668;1263;58920;-68
2022/12/04 04:00:07;;;;;;;14.40;6.80;;;;;;;0.35;100.00;98259.46;107650;1265;70900;-68
2022/12/04 04:02:47;;;;;;;16.30;8.80;;;;;;;0.32;100.00;98260.03;107674;1265;69660;-67
2022/12/04 04:05:20;;;;;;;16.10;8.70;;;;;;;0.30;100.00;98256.98;108542;1265;69205;-68
2022/12/04 04:08:24;;;;;;;15.10;7.90;;;;;;;0.29;100.00;98257.86;108200;1263;59707;-67
2022/12/04 04:10:50;;;;;;;14.60;7.20;;;;;;;0.29;100.00;98256.84;108279;1267;59763;-68
2022/12/04 04:25:03;;;;;;;17.30;9.70;;;;;;;0.30;100.00;98234.70;107757;1263;59766;-67
2022/12/04 04:27:33;;;;;;;13.10;7.30;;;;;;;0.32;100.00;98231.05;107698;1262;71425;-67
2022/12/04 04:30:05;;;;;;;15.30;8.20;;;;;;;0.32;100.00;98238.59;107663;1265;69725;-66
2022/12/04 04:32:44;;;;;;;17.20;9.30;;;;;;;0.33;100.00;98249.39;107649;1265;68558;-66
2022/12/04 04:35:24;;;;;;;24.20;9.70;;;;;;;0.33;100.00;98247.16;107679;1267;59702;-67
2022/12/04 04:38:11;;;;;;;17.50;8.10;;;;;;;0.32;100.00;98248.20;107688;1265;59703;-67
2022/12/04 04:40:44;;;;;;;14.30;8.20;;;;;;;0.29;100.00;98251.86;107662;1263;71994;-67
2022/12/04 04:43:24;;;;;;;16.90;8.60;;;;;;;0.28;100.00;98253.25;107708;1263;69115;-67
2022/12/04 04:46:03;;;;;;;16.40;7.60;;;;;;;0.25;100.00;98252.44;107680;1265;68310;-67
2022/12/04 04:48:45;;;;;;;15.90;8.60;;;;;;;0.20;100.00;98249.27;107638;1263;59712;-67
2022/12/04 04:51:15;;;;;;;13.80;8.40;;;;;;;0.17;100.00;98252.58;107629;1263;59705;-67
2022/12/04 04:53:54;;;;;;;17.60;8.20;;;;;;;0.18;100.00;98252.05;107683;1265;71374;-67
2022/12/04 04:56:24;;;;;;;10.70;6.90;;;;;;;0.19;100.00;98242.11;107677;1267;69675;-67
2022/12/04 04:58:53;;;;;;;24.50;9.40;;;;;;;0.18;100.00;98241.59;107707;1267;69940;-67
2022/12/04 05:01:26;;;;;;;15.50;7.30;;;;;;;0.19;100.00;98241.23;107647;1262;59718;-67
2022/12/04 05:03:55;;;;;;;15.20;8.20;;;;;;;0.19;100.00;98242.61;107697;1263;59775;-67
2022/12/04 05:06:26;;;;;;;15.20;8.60;;;;;;;0.18;100.00;98237.83;107693;1267;71568;-67
2022/12/04 05:08:56;;;;;;;18.60;9.50;;;;;;;0.18;100.00;98235.42;107724;1267;68276;-67
2022/12/04 05:11:25;;;;;;;17.10;8.90;;;;;;;0.19;100.00;98238.67;107614;1267;68394;-67
2022/12/04 05:13:55;;;;;;;;;;;;;;;0.18;100.00;98243.99;107679;1265;59675;-67
2022/12/04 05:16:25;;;;;;;22.40;8.00;;;;;;;0.15;100.00;98245.95;107649;1267;59704;-67
2022/12/04 05:21:43;;;;;;;16.20;8.30;;;;;;;0.06;100.00;98244.05;107648;1268;68704;-67
2022/12/04 05:24:12;;;;;;;22.10;9.20;;;;;;;0.06;100.00;98244.39;107650;1259;69457;-67
2022/12/04 05:26:42;;;;;;;19.40;8.50;;;;;;;0.07;100.00;98238.54;107638;1267;60129;-67
2022/12/04 05:29:11;;;;;;;16.40;8.50;;;;;;;0.08;100.00;98239.02;107741;1267;59762;-68
2022/12/04 05:31:41;;;;;;;19.60;9.10;;;;;;;0.09;100.00;98242.95;107671;1265;69827;-66
2022/12/04 05:34:11;;;;;;;21.80;9.20;;;;;;;0.08;100.00;98243.83;107628;1267;69188;-66
2022/12/04 05:36:40;;;;;;;19.10;8.60;;;;;;;0.06;100.00;98252.98;107665;1267;69765;-66
2022/12/04 05:39:09;;;;;;;25.70;10.00;;;;;;;0.04;100.00;98257.27;107684;1265;59736;-67
2022/12/04 05:41:38;;;;;;;20.10;10.60;;;;;;;0.02;100.00;98258.69;107680;1267;59734;-67
2022/12/04 05:44:08;;;;;;;18.90;9.40;;;;;;;0.02;100.00;98259.38;107619;1267;71405;-67
2022/12/04 05:46:37;;;;;;;23.70;9.10;;;;;;;0.02;100.00;98257.83;107747;1262;68803;-67
2022/12/04 05:49:06;;;;;;;35.00;9.60;;;;;;;-0.01;100.00;98261.48;107637;1267;68703;-67
2022/12/04 05:51:36;;;;;;;;;;;;;;;-0.06;100.00;98259.15;107631;1263;59691;-67
2022/12/04 05:54:05;;;;;;;20.10;8.20;;;;;;;-0.08;100.00;98256.62;107691;1265;59702;-67
2022/12/04 05:56:35;;;;;;;13.00;7.90;;;;;;;-0.08;100.00;98258.17;107651;1267;71413;-67
2022/12/04 05:59:07;;;;;;;13.90;6.30;;;;;;;-0.12;100.00;98257.55;107657;1266;69860;-67
2022/12/04 06:01:36;;;;;;;18.10;8.00;;;;;;;-0.13;100.00;98256.55;107655;1262;69899;-67
2022/12/04 06:04:06;;;;;;;13.70;7.20;;;;;;;-0.18;100.00;98255.42;107618;1265;59827;-67
2022/12/04 06:06:35;;;;;;;16.40;9.30;;;;;;;-0.21;100.00;98254.79;107674;1265;59693;-67
2022/12/04 06:09:06;;;;;;;18.80;10.50;;;;;;;-0.24;100.00;98260.48;107721;1265;71257;-66
2022/12/04 06:11:36;;;;;;;21.60;8.30;;;;;;;-0.22;100.00;98262.69;107818;1269;69412;-66
2022/12/04 06:14:09;;;;;;;18.60;8.00;;;;;;;-0.21;100.00;98264.04;107688;1269;69816;-66
2022/12/04 06:16:41;;;;;;;15.20;7.60;;;;;;;-0.21;100.00;98266.25;107705;1267;59699;-66
2022/12/04 06:19:17;;;;;;;24.40;7.90;;;;;;;-0.22;100.00;98268.69;107689;1267;59707;-67
2022/12/04 06:21:48;;;;;;;20.20;8.50;;;;;;;-0.24;100.00;98270.77;107684;1267;71844;-67
2022/12/04 06:24:22;;;;;;;25.00;9.70;;;;;;;-0.30;100.00;98278.56;107646;1268;67629;-66
2022/12/04 06:26:56;;;;;;;25.40;11.00;;;;;;;-0.30;100.00;98284.05;107624;1269;68509;-67
2022/12/04 06:29:45;;;;;;;16.80;9.40;;;;;;;-0.32;100.00;98289.05;107678;1267;59704;-67
2022/12/04 06:32:14;;;;;;;17.20;9.40;;;;;;;-0.30;100.00;98287.46;107679;1267;59728;-67
2022/12/04 06:34:53;;;;;;;15.70;8.40;;;;;;;-0.25;100.00;98281.23;107668;1267;71988;-67
2022/12/04 06:37:23;;;;;;;22.90;9.70;;;;;;;-0.19;100.00;98278.39;107701;1267;68488;-67
2022/12/04 06:39:52;;;;;;;17.40;8.90;;;;;;;-0.15;100.00;98279.70;107645;1267;69838;-67
2022/12/04 06:42:21;;;;;;;20.90;11.00;;;;;;;-0.13;100.00;98284.14;107648;1265;59743;-67
2022/12/04 06:44:50;;;;;;;22.60;8.90;;;;;;;-0.11;100.00;98278.42;107661;1269;59706;-67
2022/12/04 06:47:19;;;;;;;19.10;10.20;;;;;;;-0.08;100.00;98275.30;107752;1263;71605;-67
2022/12/04 06:49:50;;;;;;;17.20;8.40;;;;;;;-0.06;100.00;98276.80;107636;1267;69368;-66
2022/12/04 06:52:19;;;;;;;;;;;;;;;0.00;100.00;98278.93;107639;1263;69331;-67
2022/12/04 06:54:47;;;;;;;13.20;7.50;;;;;;;0.06;100.00;98277.13;107658;1267;59700;-67
2022/12/04 06:57:16;;;;;;;18.20;8.90;;;;;;;0.10;100.00;98276.21;107736;1268;59668;-67
2022/12/04 06:59:45;;;;;;;17.60;7.90;;;;;;;0.06;100.00;98270.09;107869;1265;70910;-66
2022/12/04 07:02:14;;;;;;;12.60;7.80;;;;;;;0.07;100.00;98269.05;107887;1265;68752;-66
2022/12/04 07:04:44;;;;;;;16.30;9.70;;;;;;;0.08;100.00;98269.71;107755;1269;69744;-67
2022/12/04 07:07:13;;;;;;;21.60;11.70;;;;;;;0.10;100.00;98270.39;107691;1269;60209;-67
2022/12/04 07:09:44;;;;;;;18.90;10.00;;;;;;;0.13;100.00;98272.20;107702;1267;59649;-67
2022/12/04 07:12:14;;;;;;;24.10;11.30;;;;;;;0.21;100.00;98277.04;107667;1263;72007;-67
2022/12/04 07:14:43;;;;;;;24.70;12.10;;;;;;;0.23;100.00;98274.25;107660;1268;69759;-68
2022/12/04 07:17:11;;;;;;;21.60;10.60;;;;;;;0.20;100.00;98279.80;107644;1265;68549;-67
2022/12/04 07:19:40;;;;;;;32.00;11.90;;;;;;;0.23;100.00;98279.23;107657;1267;60179;-67
2022/12/04 07:22:09;;;;;;;35.80;12.70;;;;;;;0.21;100.00;98283.19;107658;1265;59769;-67
2022/12/04 07:24:38;;;;;;;22.00;13.00;;;;;;;0.19;100.00;98278.09;107647;1267;70603;-67
2022/12/04 07:27:06;;;;;;;21.30;11.40;;;;;;;0.18;100.00;98273.48;107727;1265;69819;-68
2022/12/04 07:29:35;;;;;;;24.90;11.00;;;;;;;0.23;100.00;98274.27;107658;1266;69310;-68
2022/12/04 07:32:04;;;;;;;16.70;10.70;;;;;;;0.23;100.00;98271.34;107706;1268;59746;-68
2022/12/04 07:34:34;;;;;;;18.20;9.50;;;;;;;0.20;100.00;98277.22;107694;1265;59705;-69
2022/12/04 07:37:03;;;;;;;16.70;9.40;;;;;;;0.25;100.00;98287.42;107799;1267;70633;-67
2022/12/04 07:39:32;;;;;;;12.10;7.10;;;;;;;0.31;100.00;98289.55;107803;1265;69363;-67
2022/12/04 07:42:01;;;;;;;13.60;7.40;;;;;;;0.30;100.00;98290.77;107762;1267;68758;-67
2022/12/04 07:44:30;;;;;;;17.00;9.70;;;;;;;0.30;100.00;98285.11;107667;1266;60018;-67
2022/12/04 07:46:59;;;;;;;15.00;9.20;;;;;;;0.31;100.00;98283.37;107797;1268;60147;-67
2022/12/04 07:49:28;;;;;;;12.90;8.60;;;;;;;0.30;100.00;98283.40;107739;1265;70711;-67
2022/12/04 07:51:57;;;;;;;12.50;8.20;;;;;;;0.31;100.00;98283.19;107736;1267;69186;-67
2022/12/04 07:54:25;;;;;;;10.70;7.00;;;;;;;0.36;100.00;98287.91;107716;1258;69837;-67
2022/12/04 07:56:55;;;;;;;12.60;7.30;;;;;;;0.42;100.00;98292.07;107614;1267;59778;-67
2022/12/04 07:59:23;;;;;;;17.20;9.20;;;;;;;0.47;100.00;98295.08;107728;1267;59671;-67
2022/12/04 08:01:52;;;;;;;15.80;9.00;;;;;;;0.52;100.00;98293.11;107665;1267;71136;-67
2022/12/04 08:04:21;;;;;;;18.00;9.20;;;;;;;0.58;100.00;98292.30;107695;1267;69941;-68
2022/12/04 08:06:50;;;;;;;15.20;9.20;;;;;;;0.63;100.00;98296.34;107622;1269;68732;-67
2022/12/04 08:09:19;;;;;;;17.00;8.80;;;;;;;0.69;100.00;98296.56;107616;1270;59669;-68
2022/12/04 08:11:48;;;;;;;13.50;8.50;;;;;;;0.69;100.00;98293.31;107707;1269;59684;-67
2022/12/04 08:14:16;;;;;;;18.60;10.40;;;;;;;0.70;100.00;98289.84;107694;1265;72055;-68
2022/12/04 08:16:48;;;;;;;15.10;9.30;;;;;;;0.76;100.00;98286.99;107758;1267;69193;-68
2022/12/04 08:19:21;;;;;;;17.20;9.90;;;;;;;0.80;100.00;98283.98;107656;1263;69120;-68
2022/12/04 08:21:50;;;;;;;17.20;10.30;;;;;;;0.81;100.00;98284.47;107769;1265;59775;-68
2022/12/04 08:24:18;;;;;;;15.80;9.40;;;;;;;0.91;100.00;98288.23;107729;1261;59811;-68
2022/12/04 08:26:47;;;;;;;14.70;9.00;;;;;;;1.02;100.00;98288.87;107749;1262;72361;-68
2022/12/04 08:29:17;;;;;;;10.40;6.90;;;;;;;1.08;100.00;98283.95;107631;1267;69238;-68
2022/12/04 08:31:45;;;;;;;19.00;11.20;;;;;;;1.17;100.00;98276.89;107661;1267;69169;-68
2022/12/04 08:34:14;;;;;;;17.00;10.50;;;;;;;1.21;100.00;98268.90;107719;1267;59766;-68
2022/12/04 08:36:43;;;;;;;15.70;9.90;;;;;;;1.23;100.00;98267.30;107767;1267;59712;-68
2022/12/04 08:39:12;;;;;;;15.70;12.50;;;;;;;1.25;100.00;98269.66;107701;1268;70857;-68
2022/12/04 08:41:40;;;;;;;13.50;9.80;;;;;;;1.33;100.00;98268.99;107740;1267;68646;-67
2022/12/04 08:44:09;;;;;;;17.20;10.00;;;;;;;1.43;100.00;98267.38;107743;1267;69275;-67
2022/12/04 08:46:38;;;;;;;17.60;11.00;;;;;;;1.46;100.00;98262.48;107615;1263;59735;-67
2022/12/04 08:49:07;;;;;;;16.80;11.00;;;;;;;1.47;100.00;98260.58;107678;1267;59726;-69
2022/12/04 08:51:36;;;;;;;18.00;9.60;;;;;;;1.52;100.00;98253.08;107725;1266;72007;-67
2022/12/04 08:54:07;;;;;;;14.50;9.80;;;;;;;1.68;100.00;98252.71;107690;1263;69029;-66
2022/12/04 08:56:36;;;;;;;15.60;10.50;;;;;;;1.79;100.00;98247.98;107658;1267;69156;-67
2022/12/04 08:59:05;;;;;;;15.30;10.70;;;;;;;1.90;100.00;98247.90;107666;1267;59738;-67
2022/12/04 09:01:34;;;;;;;16.50;12.40;;;;;;;2.00;99.18;98249.86;107626;1267;59756;-68
2022/12/04 09:04:03;;;;;;;13.70;9.60;;;;;;;2.15;99.94;98246.41;107636;1267;71359;-68
2022/12/04 09:06:32;;;;;;;17.20;12.30;;;;;;;2.20;98.81;98245.92;107759;1267;69814;-68
2022/12/04 09:09:00;;;;;;;13.20;8.70;;;;;;;2.31;99.48;98242.70;107763;1265;68486;-68
2022/12/04 09:11:31;;;;;;;14.60;9.90;;;;;;;2.41;100.00;98240.37;107761;1269;59724;-68
2022/12/04 09:14:01;;;;;;;11.50;8.50;;;;;;;2.45;100.00;98240.27;107720;1263;59772;-68
2022/12/04 09:16:29;;;;;;;13.60;9.70;;;;;;;2.53;100.00;98238.00;107684;1267;70847;-67
2022/12/04 09:18:58;;;;;;;11.70;9.20;;;;;;;2.83;100.00;98235.41;107712;1266;69191;-68
2022/12/04 09:21:28;;;;;;;18.20;11.90;;;;;;;3.13;97.63;98230.58;107757;1269;69792;-66
2022/12/04 09:23:58;;;;;;;12.40;8.50;;;;;;;3.31;95.06;98226.08;107728;1268;59689;-67
2022/12/04 09:26:30;;;;;;;13.70;10.30;;;;;;;3.51;97.60;98222.86;107774;1265;59726;-68
2022/12/04 09:29:00;;;;;;;13.60;9.70;;;;;;;3.60;97.05;98221.04;107660;1269;71085;-68
2022/12/04 09:31:31;;;;;;;12.00;9.60;;;;;;;3.57;92.80;98218.20;107650;1265;69883;-68
2022/12/04 09:34:00;;;;;;;9.50;6.50;;;;;;;3.64;92.50;98223.32;107622;1267;69092;-67
2022/12/04 09:36:29;;;;;;;11.30;9.30;;;;;;;3.62;90.75;98214.08;107706;1267;59767;-67
2022/12/04 09:38:58;;;;;;;12.60;9.70;;;;;;;3.65;89.51;98214.70;107760;1268;59734;-67
2022/12/04 09:41:56;;;;;;;12.00;9.30;;;;;;;3.69;89.47;98215.26;107650;1267;70741;-69
2022/12/04 09:44:39;;;;;;;11.40;9.30;;;;;;;3.91;91.10;98214.84;107817;1254;69125;-69
2022/12/04 09:47:22;;;;;;;13.00;10.00;;;;;;;4.14;91.09;98212.36;107793;1267;68302;-69
2022/12/04 09:49:56;;;;;;;12.40;10.70;;;;;;;4.21;87.28;98215.40;107768;1267;59730;-69
2022/12/04 09:52:38;;;;;;;13.30;9.80;;;;;;;4.35;88.45;98209.91;107745;1267;59762;-69
2022/12/04 09:55:14;;;;;;;11.20;9.30;;;;;;;4.55;86.23;98205.55;107650;1265;70901;-69
2022/12/04 09:57:47;;;;;;;8.80;7.10;;;;;;;4.83;89.59;98204.89;107697;1268;69077;-68
2022/12/04 10:00:18;;;;;;;10.80;9.10;;;;;;;5.00;91.92;98202.87;107727;1265;70263;-68
2022/12/04 10:03:11;;;;;;;13.50;9.90;;;;;;;4.94;87.79;98205.34;107803;1265;59765;-68
2022/12/04 10:05:59;;;;;;;11.40;9.00;;;;;;;4.93;84.04;98201.23;107510;1267;383436;-68
2022/12/04 10:08:33;;;;;;;11.00;8.90;;;;;;;5.13;86.93;98198.74;107744;1261;71976;-68
2022/12/04 10:11:26;;;;;;;12.70;9.10;;;;;;;5.45;88.14;98194.58;107748;1267;69232;-68
2022/12/04 10:14:27;;;;;;;11.50;9.60;;;;;;;5.63;84.28;98189.18;107757;1267;69255;-68
2022/12/04 10:17:27;;;;;;;13.80;10.50;;;;;;;5.90;87.15;98184.45;107807;1267;59795;-68
2022/12/04 10:20:03;;;;;;;12.80;10.90;;;;;;;6.01;84.08;98184.67;107714;1263;59699;-68
2022/12/04 10:23:23;;;;;;;12.60;10.90;;;;;;;6.29;84.36;98188.88;107717;1263;72036;-68
2022/12/04 10:25:54;;;;;;;11.00;9.30;;;;;;;7.34;85.15;98183.75;107481;1267;69656;-68
2022/12/04 10:28:33;;;;;;;12.90;10.40;;;;;;;8.31;76.69;98181.20;107603;1267;69093;-68
2022/12/04 10:31:04;;;;;;;10.70;8.90;;;;;;;9.11;68.83;98175.77;107791;1267;59837;-68
2022/12/04 10:33:46;;;;;;;11.10;8.60;;;;;;;9.92;71.62;98175.40;107738;1265;59701;-68
2022/12/04 10:36:20;;;;;;;11.80;9.70;;;;;;;10.74;74.59;98172.29;107668;1263;71356;-68
2022/12/04 10:38:55;;;;;;;11.60;9.60;;;;;;;11.46;66.50;98169.88;107693;1265;69856;-68
2022/12/04 10:41:50;;;;;;;13.20;10.50;;;;;;;12.27;66.98;98167.87;107719;1267;69775;-69
2022/12/04 10:44:19;;;;;;;14.40;12.50;;;;;;;13.02;65.05;98156.15;107677;1269;59732;-68
2022/12/04 10:46:52;;;;;;;11.00;9.00;;;;;;;13.51;61.62;98148.67;107713;1265;59762;-68
2022/12/04 10:49:34;;;;;;;12.00;9.80;;;;;;;13.69;54.64;98135.80;107780;1267;70931;-68
2022/12/04 10:52:03;;;;;;;12.60;11.10;;;;;;;14.32;61.85;98138.72;107724;1263;69021;-67
2022/12/04 10:54:39;;;;;;;13.00;11.40;;;;;;;14.39;53.35;98136.29;107778;1269;69714;-69
2022/12/04 10:57:12;;;;;;;11.10;9.90;;;;;;;14.42;54.56;98130.43;107672;1269;59764;-68
2022/12/04 10:59:48;;;;;;;11.90;10.30;;;;;;;15.16;56.38;98116.79;107703;1269;59636;-67
2022/12/04 11:02:26;;;;;;;12.90;10.70;;;;;;;15.38;51.83;98108.48;107650;1269;71390;-70
2022/12/04 11:04:58;;;;;;;11.10;9.90;;;;;;;15.71;51.77;98106.86;107645;1269;69864;-68
2022/12/04 11:07:31;;;;;;;11.80;10.00;;;;;;;15.37;45.96;98111.75;107680;1269;69077;-69
2022/12/04 11:10:06;;;;;;;10.70;9.60;;;;;;;14.81;46.35;98114.77;107631;1269;59708;-71
2022/12/04 11:12:37;;;;;;;11.70;10.50;;;;;;;15.03;46.97;98109.85;107671;1269;59757;-68
2022/12/04 11:15:05;;;;;;;11.40;9.90;;;;;;;15.17;46.11;98104.05;107633;1268;70967;-69
2022/12/04 11:17:34;;;;;;;11.80;9.80;;;;;;;15.50;46.30;98095.19;107664;1262;67667;-69
2022/12/04 11:20:26;;;;;;;13.20;10.90;;;;;;;15.29;45.76;98091.98;107695;1265;69144;-69
2022/12/04 11:22:57;;;;;;;11.40;10.20;;;;;;;16.30;48.97;98097.98;107590;1269;59788;-69
2022/12/04 11:25:33;;;;;;;10.60;9.50;;;;;;;16.95;46.87;98091.16;107621;1265;59680;-70
2022/12/04 11:28:03;;;;;;;9.70;8.30;;;;;;;17.33;45.33;98089.43;107607;1269;71229;-69
2022/12/04 11:30:37;;;;;;;9.80;8.80;;;;;;;17.38;43.38;98093.52;107678;1265;69018;-69
2022/12/04 11:33:16;;;;;;;9.50;8.50;;;;;;;17.84;44.90;98088.28;107736;1269;70260;-70
2022/12/04 11:35:56;;;;;;;9.40;7.80;;;;;;;17.52;41.69;98077.27;107680;1269;59722;-69
2022/12/04 11:38:27;;;;;;;9.00;8.10;;;;;;;17.62;40.86;98075.66;107723;1265;59700;-69
2022/12/04 11:40:57;;;;;;;9.60;8.60;;;;;;;16.31;41.46;98072.54;107706;1256;70546;-69
2022/12/04 11:43:29;;;;;;;10.00;8.90;;;;;;;15.28;43.76;98071.38;107701;1265;69080;-71
2022/12/04 11:46:05;;;;;;;10.00;9.00;;;;;;;14.90;45.44;98069.45;107720;1269;69317;-70
2022/12/04 11:48:42;;;;;;;11.30;10.10;;;;;;;14.77;45.62;98063.89;107649;1268;60030;-69
2022/12/04 11:51:22;;;;;;;11.70;10.10;;;;;;;15.01;45.27;98063.67;107712;1269;59706;-70
2022/12/04 11:54:10;;;;;;;12.20;10.80;;;;;;;15.58;45.26;98065.92;107658;1269;71390;-70
2022/12/04 11:56:44;;;;;;;9.00;8.10;;;;;;;16.63;43.33;98062.66;107650;1269;69722;-70
2022/12/04 11:59:38;;;;;;;8.30;7.10;;;;;;;17.13;42.30;98056.80;107629;1269;69898;-68
2022/12/04 12:02:18;;;;;;;10.70;9.60;;;;;;;17.37;41.84;98050.61;107652;1269;60266;-69
2022/12/04 12:05:17;;;;;;;10.00;9.00;;;;;;;18.18;40.44;98047.27;107628;1269;59772;-71